createdAt,value
2022-10-06T00:01:35.194Z,13.77
2022-10-06T00:03:38.674Z,13.73
2022-10-06T00:05:41.560Z,13.65
2022-10-06T00:07:44.168Z,13.64
2022-10-06T00:09:48.169Z,13.64
2022-10-06T00:11:50.712Z,13.63
2022-10-06T00:13:53.315Z,13.88
2022-10-06T00:15:56.141Z,13.85
2022-10-06T00:18:00.044Z,13.89
2022-10-06T00:20:02.776Z,13.93
2022-10-06T00:22:05.437Z,13.94
2022-10-06T00:24:08.066Z,13.95
2022-10-06T00:26:16.684Z,13.98
2022-10-06T00:28:19.886Z,14.07
2022-10-06T00:30:24.721Z,14.13
2022-10-06T00:32:27.311Z,14.12
2022-10-06T00:34:29.928Z,14.10
2022-10-06T00:36:32.523Z,14.07
2022-10-06T00:38:35.817Z,14.15
2022-10-06T00:40:45.678Z,14.06
2022-10-06T00:42:58.878Z,14.02
2022-10-06T00:45:04.932Z,13.99
2022-10-06T00:47:07.511Z,13.94
2022-10-06T00:49:16.376Z,13.96
2022-10-06T00:51:19.674Z,13.94
2022-10-06T00:53:23.757Z,14.06
2022-10-06T00:55:26.392Z,14.04
2022-10-06T00:57:28.957Z,13.99
2022-10-06T00:59:33.559Z,13.97
2022-10-06T01:01:37.449Z,13.93
2022-10-06T01:03:43.907Z,13.88
2022-10-06T01:05:51.119Z,13.84
2022-10-06T01:07:54.279Z,13.80
2022-10-06T01:09:57.973Z,13.76
2022-10-06T01:12:04.151Z,13.73
2022-10-06T01:14:06.993Z,13.70
2022-10-06T01:16:17.056Z,13.66
2022-10-06T01:18:23.111Z,13.59
2022-10-06T01:20:26.143Z,13.57
2022-10-06T01:22:31.683Z,13.52
2022-10-06T01:24:34.407Z,13.47
2022-10-06T01:26:43.217Z,13.46
2022-10-06T01:28:46.619Z,13.44
2022-10-06T01:30:52.891Z,13.44
2022-10-06T01:32:56.113Z,13.42
2022-10-06T01:34:58.770Z,13.40
2022-10-06T01:37:01.398Z,13.35
2022-10-06T01:39:05.376Z,13.33
2022-10-06T01:41:07.947Z,13.31
2022-10-06T01:43:10.483Z,13.29
2022-10-06T01:45:13.330Z,13.23
2022-10-06T01:47:15.971Z,13.21
2022-10-06T01:49:18.536Z,13.19
2022-10-06T01:51:21.146Z,13.16
2022-10-06T01:53:23.846Z,13.14
2022-10-06T01:55:28.022Z,13.07
2022-10-06T01:57:32.398Z,13.05
2022-10-06T01:59:35.130Z,13.07
2022-10-06T02:01:38.553Z,13.01
2022-10-06T02:03:41.888Z,12.91
2022-10-06T02:05:44.536Z,12.87
2022-10-06T02:07:47.178Z,12.81
2022-10-06T02:09:49.982Z,12.79
2022-10-06T02:11:53.881Z,12.81
2022-10-06T02:13:56.498Z,12.82
2022-10-06T02:15:59.443Z,12.78
2022-10-06T02:18:02.049Z,12.71
2022-10-06T02:20:05.025Z,12.69
2022-10-06T02:22:07.651Z,12.63
2022-10-06T02:24:10.318Z,12.59
2022-10-06T02:26:14.353Z,12.59
2022-10-06T02:28:18.312Z,12.59
2022-10-06T02:30:20.962Z,12.58
2022-10-06T02:32:24.044Z,12.57
2022-10-06T02:34:26.647Z,12.55
2022-10-06T02:36:29.376Z,12.52
2022-10-06T02:38:32.940Z,12.51
2022-10-06T02:40:35.604Z,12.49
2022-10-06T02:42:39.074Z,12.50
2022-10-06T02:44:43.056Z,12.53
2022-10-06T02:46:45.742Z,12.56
2022-10-06T02:48:48.398Z,12.55
2022-10-06T02:50:56.062Z,12.57
2022-10-06T02:52:58.645Z,12.55
2022-10-06T02:55:02.256Z,12.56
2022-10-06T02:57:05.205Z,12.66
2022-10-06T02:59:07.747Z,12.64
2022-10-06T03:01:13.535Z,12.55
2022-10-06T03:03:16.108Z,12.59
2022-10-06T03:05:18.649Z,12.60
2022-10-06T03:07:21.235Z,12.53
2022-10-06T03:09:23.805Z,12.52
2022-10-06T03:11:28.174Z,12.48
2022-10-06T03:13:31.787Z,12.53
2022-10-06T03:15:34.404Z,12.49
2022-10-06T03:17:38.396Z,12.51
2022-10-06T03:19:41.016Z,12.49
2022-10-06T03:21:44.345Z,12.48
2022-10-06T03:23:48.874Z,12.47
2022-10-06T03:25:57.809Z,12.48
2022-10-06T03:28:00.476Z,12.49
2022-10-06T03:30:03.488Z,12.51
2022-10-06T03:32:06.153Z,12.54
2022-10-06T03:34:10.136Z,12.56
2022-10-06T03:36:14.661Z,12.54
2022-10-06T03:38:17.218Z,12.55
2022-10-06T03:40:20.190Z,12.52
2022-10-06T03:42:22.753Z,12.50
2022-10-06T03:44:25.355Z,12.49
2022-10-06T03:46:29.910Z,12.46
2022-10-06T03:48:34.305Z,12.45
2022-10-06T03:50:38.240Z,12.47
2022-10-06T03:52:40.831Z,12.45
2022-10-06T03:54:43.363Z,12.39
2022-10-06T03:56:46.003Z,12.41
2022-10-06T03:58:51.774Z,12.45
2022-10-06T04:01:00.404Z,12.41
2022-10-06T04:03:03.030Z,12.39
2022-10-06T04:05:06.235Z,12.41
2022-10-06T04:07:10.169Z,12.38
2022-10-06T04:09:15.895Z,12.36
2022-10-06T04:11:21.113Z,12.32
2022-10-06T04:13:23.754Z,12.31
2022-10-06T04:15:26.358Z,12.29
2022-10-06T04:17:29.039Z,12.28
2022-10-06T04:19:31.638Z,12.28
2022-10-06T04:21:36.583Z,12.29
2022-10-06T04:23:40.526Z,12.26
2022-10-06T04:25:43.390Z,12.26
2022-10-06T04:27:46.059Z,12.24
2022-10-06T04:29:48.680Z,12.23
2022-10-06T04:31:51.318Z,12.20
2022-10-06T04:33:55.494Z,12.21
2022-10-06T04:35:59.621Z,12.22
2022-10-06T04:38:02.171Z,12.17
2022-10-06T04:40:07.278Z,12.13
2022-10-06T04:42:09.831Z,12.14
2022-10-06T04:44:12.454Z,12.13
2022-10-06T04:46:40.734Z,12.14
2022-10-06T04:48:38.604Z,12.11
2022-10-06T04:50:41.171Z,12.11
2022-10-06T04:52:43.745Z,12.12
2022-10-06T04:54:46.373Z,12.11
2022-10-06T04:56:50.682Z,12.11
2022-10-06T04:58:55.611Z,12.11
2022-10-06T05:00:57.266Z,12.10
2022-10-06T05:02:59.799Z,12.05
2022-10-06T05:05:02.421Z,12.05
2022-10-06T05:07:05.611Z,11.99
2022-10-06T05:09:10.150Z,11.96
2022-10-06T05:11:16.631Z,11.95
2022-10-06T05:13:22.127Z,11.94
2022-10-06T05:15:24.733Z,11.95
2022-10-06T05:17:27.281Z,11.96
2022-10-06T05:19:29.851Z,11.94
2022-10-06T05:21:33.250Z,11.92
2022-10-06T05:23:38.786Z,11.94
2022-10-06T05:25:41.349Z,11.93
2022-10-06T05:27:43.919Z,11.87
2022-10-06T05:29:48.165Z,11.85
2022-10-06T05:31:50.780Z,11.84
2022-10-06T05:33:53.845Z,11.85
2022-10-06T05:35:58.355Z,11.85
2022-10-06T05:38:00.993Z,11.85
2022-10-06T05:40:03.824Z,11.86
2022-10-06T05:42:06.516Z,11.85
2022-10-06T05:44:09.603Z,11.87
2022-10-06T05:46:17.594Z,11.86
2022-10-06T05:48:20.381Z,11.82
2022-10-06T05:50:23.533Z,11.79
2022-10-06T05:52:26.099Z,11.79
2022-10-06T05:54:28.931Z,11.75
2022-10-06T05:56:33.285Z,11.73
2022-10-06T05:58:37.049Z,11.73
2022-10-06T06:00:39.607Z,11.73
2022-10-06T06:02:43.528Z,11.70
2022-10-06T06:04:46.112Z,11.73
2022-10-06T06:06:49.691Z,11.75
2022-10-06T06:08:55.063Z,11.80
2022-10-06T06:11:07.213Z,11.84
2022-10-06T06:13:10.821Z,11.86
2022-10-06T06:15:30.725Z,11.85
2022-10-06T06:17:33.948Z,11.87
2022-10-06T06:19:38.171Z,11.93
2022-10-06T06:21:41.235Z,11.96
2022-10-06T06:23:46.513Z,12.00
2022-10-06T06:26:01.990Z,12.02
2022-10-06T06:28:07.107Z,12.07
2022-10-06T06:30:10.861Z,12.18
2022-10-06T06:32:13.585Z,12.22
2022-10-06T06:34:16.173Z,12.29
2022-10-06T06:36:21.584Z,12.47
2022-10-06T06:38:24.204Z,12.43
2022-10-06T06:40:26.799Z,12.42
2022-10-06T06:42:29.366Z,12.47
2022-10-06T06:44:31.995Z,12.49
2022-10-06T06:48:43.726Z,12.58
2022-10-06T06:50:46.733Z,12.65
2022-10-06T06:52:50.646Z,12.70
2022-10-06T06:54:53.274Z,12.75
2022-10-06T06:56:56.609Z,12.81
2022-10-06T06:58:59.265Z,12.84
2022-10-06T07:01:13.743Z,12.90
2022-10-06T07:03:28.256Z,12.96
2022-10-06T07:05:40.988Z,13.02
2022-10-06T07:07:43.562Z,13.08
2022-10-06T07:09:47.559Z,13.13
2022-10-06T07:11:50.365Z,13.19
2022-10-06T07:13:55.140Z,13.23
2022-10-06T07:16:15.506Z,13.26
2022-10-06T07:18:32.454Z,13.31
2022-10-06T07:21:01.910Z,13.34
2022-10-06T07:23:22.283Z,13.38
2022-10-06T07:25:27.703Z,13.42
2022-10-06T07:27:30.965Z,13.45
2022-10-06T07:29:33.532Z,13.48
2022-10-06T07:31:37.707Z,13.52
2022-10-06T07:33:40.817Z,13.54
2022-10-06T07:35:43.417Z,13.55
2022-10-06T07:37:46.008Z,13.59
2022-10-06T07:39:49.877Z,13.64
2022-10-06T07:41:53.876Z,13.67
2022-10-06T07:43:56.544Z,13.69
2022-10-06T07:45:59.205Z,13.73
2022-10-06T07:48:02.723Z,13.72
2022-10-06T07:50:05.739Z,13.71
2022-10-06T07:52:08.375Z,13.72
2022-10-06T07:54:11.615Z,13.74
2022-10-06T07:56:15.754Z,13.72
2022-10-06T07:58:22.501Z,13.72
2022-10-06T08:00:27.174Z,13.71
2022-10-06T08:02:31.560Z,13.74
2022-10-06T08:04:40.481Z,13.74
2022-10-06T08:06:43.121Z,13.75
2022-10-06T08:08:52.466Z,13.77
2022-10-06T08:11:00.322Z,13.79
2022-10-06T08:13:06.272Z,13.81
2022-10-06T08:15:12.922Z,13.81
2022-10-06T08:17:16.307Z,13.83
2022-10-06T08:19:19.584Z,13.84
2022-10-06T08:21:25.342Z,13.86
2022-10-06T08:23:27.984Z,13.90
2022-10-06T08:25:30.585Z,13.92
2022-10-06T08:27:34.827Z,13.92
2022-10-06T08:29:37.540Z,13.94
2022-10-06T08:31:41.548Z,13.97
2022-10-06T08:33:45.195Z,14.00
2022-10-06T08:35:47.841Z,14.02
2022-10-06T08:37:50.408Z,14.05
2022-10-06T08:39:53.368Z,14.08
2022-10-06T08:41:56.264Z,14.10
2022-10-06T08:44:04.433Z,14.15
2022-10-06T08:46:07.450Z,14.19
2022-10-06T08:48:15.119Z,14.21
2022-10-06T08:50:18.108Z,14.23
2022-10-06T08:52:34.179Z,14.27
2022-10-06T08:54:42.235Z,14.30
2022-10-06T08:56:54.504Z,14.35
2022-10-06T08:58:58.839Z,14.38
2022-10-06T09:01:15.321Z,14.44
2022-10-06T09:03:23.809Z,14.46
2022-10-06T09:05:29.843Z,14.48
2022-10-06T09:07:40.256Z,14.53
2022-10-06T09:10:04.111Z,14.55
2022-10-06T09:12:12.512Z,14.59
2022-10-06T09:14:21.198Z,14.65
2022-10-06T09:16:30.581Z,14.69
2022-10-06T09:19:03.319Z,14.71
2022-10-06T09:21:02.662Z,14.75
2022-10-06T09:23:07.856Z,14.77
2022-10-06T09:25:17.806Z,14.79
2022-10-06T09:27:23.090Z,14.83
2022-10-06T09:29:29.203Z,14.86
2022-10-06T09:31:37.841Z,14.90
2022-10-06T09:33:42.329Z,14.91
2022-10-06T09:36:06.175Z,14.91
2022-10-06T09:38:11.545Z,14.93
2022-10-06T09:40:35.171Z,14.94
2022-10-06T09:42:37.928Z,14.96
2022-10-06T09:44:51.236Z,15.03
2022-10-06T09:46:54.264Z,15.06
2022-10-06T09:49:18.655Z,15.08
2022-10-06T09:51:24.358Z,15.12
2022-10-06T09:53:27.080Z,15.13
2022-10-06T09:55:33.813Z,15.17
2022-10-06T09:57:37.279Z,15.20
2022-10-06T09:59:44.437Z,15.27
2022-10-06T10:01:52.902Z,15.35
2022-10-06T10:04:20.510Z,15.39
2022-10-06T10:06:27.558Z,15.43
2022-10-06T10:08:30.922Z,15.46
2022-10-06T10:10:35.121Z,15.47
2022-10-06T10:12:37.779Z,15.49
2022-10-06T10:14:40.383Z,15.52
2022-10-06T10:16:43.404Z,15.55
2022-10-06T10:18:50.078Z,15.58
2022-10-06T10:20:55.788Z,15.62
2022-10-06T10:23:02.292Z,15.65
2022-10-06T10:25:15.530Z,15.68
2022-10-06T10:27:23.673Z,15.76
2022-10-06T10:29:49.441Z,15.79
2022-10-06T10:32:05.160Z,15.83
2022-10-06T10:34:26.907Z,15.87
2022-10-06T10:36:37.263Z,15.90
2022-10-06T10:38:43.465Z,15.96
2022-10-06T10:40:49.078Z,15.99
2022-10-06T10:42:58.036Z,16.02
2022-10-06T10:45:04.296Z,16.03
2022-10-06T10:47:15.951Z,16.03
2022-10-06T10:49:20.523Z,16.01
2022-10-06T10:51:28.531Z,16.03
2022-10-06T10:53:42.530Z,16.07
2022-10-06T10:55:49.813Z,16.09
2022-10-06T10:57:55.275Z,16.15
2022-10-06T11:00:01.619Z,16.18
2022-10-06T11:02:13.344Z,16.19
2022-10-06T11:04:16.048Z,16.22
2022-10-06T11:06:32.709Z,16.25
2022-10-06T11:08:43.763Z,16.26
2022-10-06T11:10:51.828Z,16.26
2022-10-06T11:13:09.238Z,16.25
2022-10-06T11:15:22.989Z,16.22
2022-10-06T11:17:44.398Z,16.20
2022-10-06T11:19:56.037Z,16.20
2022-10-06T11:22:03.816Z,16.18
2022-10-06T11:24:15.535Z,16.15
2022-10-06T11:26:45.476Z,16.17
2022-10-06T11:28:54.820Z,16.20
2022-10-06T11:31:04.830Z,16.24
2022-10-06T11:33:14.920Z,16.33
2022-10-06T11:35:20.465Z,16.39
2022-10-06T11:37:35.505Z,16.44
2022-10-06T11:39:47.793Z,16.47
2022-10-06T11:41:58.840Z,16.52
2022-10-06T11:44:07.378Z,16.61
2022-10-06T11:46:31.009Z,16.64
2022-10-06T11:48:34.870Z,16.66
2022-10-06T11:50:40.203Z,16.72
2022-10-06T11:52:46.853Z,16.74
2022-10-06T11:54:52.341Z,16.75
2022-10-06T11:56:56.277Z,16.75
2022-10-06T11:59:10.806Z,16.78
2022-10-06T12:01:57.840Z,16.80
2022-10-06T12:04:14.637Z,16.82
2022-10-06T12:06:57.402Z,16.83
2022-10-06T12:09:01.039Z,16.83
2022-10-06T12:11:04.444Z,16.81
2022-10-06T12:13:51.382Z,16.78
2022-10-06T12:18:46.256Z,16.75
2022-10-06T12:21:06.280Z,16.76
2022-10-06T12:23:24.170Z,16.80
2022-10-06T12:25:32.996Z,16.83
2022-10-06T12:27:49.240Z,16.91
2022-10-06T12:29:56.475Z,16.93
2022-10-06T12:32:05.765Z,16.96
2022-10-06T12:34:41.286Z,16.99
2022-10-06T12:36:45.327Z,17.01
2022-10-06T12:39:21.144Z,17.04
2022-10-06T12:41:55.090Z,17.07
2022-10-06T12:43:58.464Z,17.09
2022-10-06T12:46:06.114Z,17.12
2022-10-06T12:48:17.227Z,17.16
2022-10-06T12:50:25.241Z,17.28
2022-10-06T12:52:44.442Z,17.42
2022-10-06T12:54:59.717Z,17.65
2022-10-06T12:57:03.811Z,17.71
2022-10-06T12:59:20.989Z,17.82
2022-10-06T13:01:24.924Z,17.90
2022-10-06T13:03:28.312Z,18.07
2022-10-06T13:05:31.609Z,18.06
2022-10-06T13:07:35.585Z,18.09
2022-10-06T13:09:38.233Z,18.12
2022-10-06T13:11:41.126Z,18.21
2022-10-06T13:13:51.069Z,18.21
2022-10-06T13:16:00.418Z,18.17
2022-10-06T13:18:12.862Z,18.12
2022-10-06T13:20:21.614Z,18.07
2022-10-06T13:22:24.312Z,18.04
2022-10-06T13:24:28.389Z,18.05
2022-10-06T13:26:34.563Z,18.06
2022-10-06T13:28:48.458Z,18.08
2022-10-06T13:30:52.639Z,18.17
2022-10-06T13:32:56.587Z,18.18
2022-10-06T13:34:59.446Z,18.27
2022-10-06T13:37:03.064Z,18.45
2022-10-06T13:39:06.887Z,18.61
2022-10-06T13:41:27.555Z,18.78
2022-10-06T13:43:30.336Z,18.93
2022-10-06T13:45:33.336Z,19.35
2022-10-06T13:47:36.242Z,19.39
2022-10-06T13:49:48.977Z,19.49
2022-10-06T13:51:54.109Z,19.68
2022-10-06T13:53:57.661Z,19.80
2022-10-06T13:56:01.006Z,19.93
2022-10-06T13:58:11.032Z,20.02
2022-10-06T14:00:19.771Z,20.08
2022-10-06T14:02:26.412Z,20.22
2022-10-06T14:04:29.231Z,20.29
2022-10-06T14:06:31.814Z,20.35
2022-10-06T14:08:35.448Z,20.37
2022-10-06T14:10:47.816Z,20.41
2022-10-06T14:12:50.596Z,20.49
2022-10-06T14:14:54.575Z,20.50
2022-10-06T14:16:59.272Z,20.53
2022-10-06T14:19:03.553Z,20.61
2022-10-06T14:21:18.449Z,20.69
2022-10-06T14:23:34.768Z,20.73
2022-10-06T14:25:37.340Z,20.59
2022-10-06T14:27:39.924Z,20.42
2022-10-06T14:29:42.520Z,20.24
2022-10-06T14:31:47.943Z,20.07
2022-10-06T14:33:52.930Z,19.88
2022-10-06T14:35:55.556Z,19.69
2022-10-06T14:37:58.978Z,19.52
2022-10-06T14:40:02.243Z,19.39
2022-10-06T14:42:08.560Z,19.25
2022-10-06T14:44:13.095Z,19.11
2022-10-06T14:46:15.846Z,19.03
2022-10-06T14:48:19.872Z,18.98
2022-10-06T14:50:22.499Z,18.92
2022-10-06T14:52:25.104Z,18.91
2022-10-06T14:54:29.553Z,18.91
2022-10-06T14:56:34.117Z,18.93
2022-10-06T14:58:43.523Z,18.97
2022-10-06T15:00:46.625Z,18.97
2022-10-06T15:02:49.359Z,18.95
2022-10-06T15:04:53.405Z,18.93
2022-10-06T15:07:13.522Z,18.90
2022-10-06T15:09:16.208Z,18.83
2022-10-06T15:11:19.765Z,18.75
2022-10-06T15:13:22.487Z,18.69
2022-10-06T15:15:25.318Z,18.70
2022-10-06T15:17:28.383Z,18.60
2022-10-06T15:19:31.033Z,18.54
2022-10-06T15:21:35.170Z,18.50
2022-10-06T15:23:38.407Z,18.50
2022-10-06T15:25:58.776Z,18.51
2022-10-06T15:28:21.361Z,18.53
2022-10-06T15:30:26.287Z,18.53
2022-10-06T15:32:28.917Z,18.50
2022-10-06T15:34:34.179Z,18.46
2022-10-06T15:36:39.707Z,18.41
2022-10-06T15:38:42.313Z,18.33
2022-10-06T15:40:44.988Z,18.25
2022-10-06T15:42:49.908Z,18.19
2022-10-06T15:44:52.640Z,18.11
2022-10-06T15:46:56.414Z,18.04
2022-10-06T15:49:01.358Z,17.96
2022-10-06T15:51:04.085Z,17.89
2022-10-06T15:53:08.028Z,17.84
2022-10-06T15:55:11.944Z,17.80
2022-10-06T15:57:20.315Z,17.77
2022-10-06T15:59:24.708Z,17.75
2022-10-06T16:01:33.988Z,17.71
2022-10-06T16:03:41.328Z,17.66
2022-10-06T16:05:51.123Z,17.62
2022-10-06T16:07:53.698Z,17.58
2022-10-06T16:09:57.650Z,17.53
2022-10-06T16:12:02.738Z,17.50
2022-10-06T16:14:05.427Z,17.46
2022-10-06T16:16:08.144Z,17.43
2022-10-06T16:18:10.793Z,17.39
2022-10-06T16:20:15.161Z,17.35
2022-10-06T16:22:19.351Z,17.33
2022-10-06T16:24:23.585Z,17.29
2022-10-06T16:26:28.937Z,17.25
2022-10-06T16:28:31.543Z,17.22
2022-10-06T16:30:34.191Z,17.19
2022-10-06T16:32:36.994Z,17.17
2022-10-06T16:34:39.775Z,17.16
2022-10-06T16:36:45.656Z,17.13
2022-10-06T16:38:51.031Z,17.11
2022-10-06T16:40:57.554Z,17.08
2022-10-06T16:43:01.513Z,17.06
2022-10-06T16:45:04.148Z,17.04
2022-10-06T16:47:06.763Z,17.02
2022-10-06T16:49:10.051Z,17.00
2022-10-06T16:51:15.956Z,16.98
2022-10-06T16:53:20.750Z,16.95
2022-10-06T16:55:24.647Z,16.93
2022-10-06T16:57:30.120Z,16.92
2022-10-06T16:59:34.042Z,16.91
2022-10-06T17:01:38.380Z,16.88
2022-10-06T17:03:41.629Z,16.86
2022-10-06T17:05:44.219Z,16.84
2022-10-06T17:07:46.836Z,16.82
2022-10-06T17:10:08.496Z,16.79
2022-10-06T17:12:12.008Z,16.75
2022-10-06T17:14:15.168Z,16.73
2022-10-06T17:16:21.615Z,16.72
2022-10-06T17:18:24.280Z,16.71
2022-10-06T17:20:27.099Z,16.68
2022-10-06T17:22:29.673Z,16.65
2022-10-06T17:24:32.237Z,16.64
2022-10-06T17:26:36.156Z,16.64
2022-10-06T17:28:40.203Z,16.62
2022-10-06T17:30:52.454Z,16.58
2022-10-06T17:32:56.887Z,16.56
2022-10-06T17:34:59.456Z,16.54
2022-10-06T17:37:02.944Z,16.52
2022-10-06T17:39:07.127Z,16.50
2022-10-06T17:41:11.248Z,16.46
2022-10-06T17:43:13.830Z,16.45
2022-10-06T17:45:21.080Z,16.44
2022-10-06T17:47:24.082Z,16.44
2022-10-06T17:49:30.350Z,16.41
2022-10-06T17:51:33.383Z,16.41
2022-10-06T17:53:36.271Z,16.39
2022-10-06T17:55:38.922Z,16.36
2022-10-06T17:57:41.864Z,16.36
2022-10-06T17:59:44.433Z,16.35
2022-10-06T18:01:47.073Z,16.37
2022-10-06T18:03:49.940Z,16.36
2022-10-06T18:05:58.873Z,16.34
2022-10-06T18:08:01.578Z,16.35
2022-10-06T18:10:21.130Z,16.34
2022-10-06T18:12:23.769Z,16.34
2022-10-06T18:14:32.171Z,16.33
2022-10-06T18:16:39.888Z,16.33
2022-10-06T18:18:47.150Z,16.32
2022-10-06T18:20:49.745Z,16.30
2022-10-06T18:22:53.634Z,16.29
2022-10-06T18:24:59.189Z,16.26
2022-10-06T18:27:02.222Z,16.26
2022-10-06T18:29:05.841Z,16.24
2022-10-06T18:31:09.302Z,16.23
2022-10-06T18:38:00.119Z,16.20
2022-10-06T18:40:08.459Z,16.20
2022-10-06T18:42:11.916Z,16.19
2022-10-06T18:44:34.530Z,16.19
2022-10-06T18:46:54.793Z,16.19
2022-10-06T18:48:58.688Z,16.19
2022-10-06T18:51:01.854Z,16.18
2022-10-06T18:53:06.107Z,16.18
2022-10-06T18:55:09.304Z,16.17
2022-10-06T18:57:11.934Z,16.17
2022-10-06T18:59:16.327Z,16.15
2022-10-06T19:01:19.529Z,16.15
2022-10-06T19:03:22.220Z,16.14
2022-10-06T19:05:25.402Z,16.13
2022-10-06T19:07:29.147Z,16.12
2022-10-06T19:09:33.223Z,16.10
2022-10-06T19:11:44.368Z,16.11
2022-10-06T19:13:49.750Z,16.09
2022-10-06T19:15:52.325Z,16.08
2022-10-06T19:17:55.280Z,16.04
2022-10-06T19:19:57.881Z,16.04
2022-10-06T19:22:02.604Z,16.04
2022-10-06T19:24:05.807Z,16.03
2022-10-06T19:26:12.048Z,16.03
2022-10-06T19:28:16.132Z,16.02
2022-10-06T19:30:18.791Z,16.02
2022-10-06T19:32:23.940Z,15.99
2022-10-06T19:34:27.347Z,15.97
2022-10-06T19:36:30.708Z,15.96
2022-10-06T19:38:37.290Z,15.95
2022-10-06T19:40:40.171Z,15.95
2022-10-06T19:42:49.578Z,15.94
2022-10-06T19:44:52.209Z,15.92
2022-10-06T19:46:56.063Z,15.91
2022-10-06T19:48:59.023Z,15.90
2022-10-06T19:51:02.643Z,15.88
2022-10-06T19:53:05.646Z,15.87
2022-10-06T19:55:08.404Z,15.85
2022-10-06T19:57:11.590Z,15.83
2022-10-06T19:59:17.683Z,15.83
2022-10-06T20:01:20.680Z,15.82
2022-10-06T20:03:23.302Z,15.81
2022-10-06T20:05:26.430Z,15.80
2022-10-06T20:07:29.698Z,15.78
2022-10-06T20:09:32.710Z,15.76
2022-10-06T20:11:36.464Z,15.76
2022-10-06T20:13:40.941Z,15.77
2022-10-06T20:15:44.887Z,15.74
2022-10-06T20:17:47.922Z,15.74
2022-10-06T20:19:55.209Z,15.72
2022-10-06T20:22:00.012Z,15.71
2022-10-06T20:24:05.522Z,15.69
2022-10-06T20:26:13.147Z,15.68
2022-10-06T20:28:15.732Z,15.66
2022-10-06T20:30:18.467Z,15.67
2022-10-06T20:32:23.053Z,15.63
2022-10-06T20:34:31.523Z,15.60
2022-10-06T20:36:35.189Z,15.57
2022-10-06T20:38:55.208Z,15.56
2022-10-06T20:40:57.763Z,15.52
2022-10-06T20:43:00.891Z,15.50
2022-10-06T20:45:03.619Z,15.49
2022-10-06T20:47:06.769Z,15.47
2022-10-06T20:49:13.979Z,15.44
2022-10-06T20:51:17.424Z,15.41
2022-10-06T20:53:19.983Z,15.47
2022-10-06T20:55:22.560Z,15.45
2022-10-06T20:57:28.117Z,15.42
2022-10-06T20:59:35.290Z,15.39
2022-10-06T21:01:40.918Z,15.38
2022-10-06T21:03:44.819Z,15.37
2022-10-06T21:05:51.030Z,15.37
2022-10-06T21:07:53.807Z,15.37
2022-10-06T21:09:57.629Z,15.37
2022-10-06T21:12:00.385Z,15.37
2022-10-06T21:14:03.424Z,15.37
2022-10-06T21:16:06.630Z,15.36
2022-10-06T21:18:09.460Z,15.37
2022-10-06T21:20:12.348Z,15.36
2022-10-06T21:22:16.443Z,15.36
2022-10-06T21:24:19.606Z,15.37
2022-10-06T21:26:24.263Z,15.42
2022-10-06T21:28:27.029Z,15.43
2022-10-06T21:30:29.839Z,15.41
2022-10-06T21:32:32.808Z,15.39
2022-10-06T21:34:35.525Z,15.37
2022-10-06T21:36:38.781Z,15.37
2022-10-06T21:38:43.980Z,15.37
2022-10-06T21:40:46.706Z,15.33
2022-10-06T21:42:49.489Z,15.34
2022-10-06T21:44:52.203Z,15.31
2022-10-06T21:46:56.771Z,15.31
2022-10-06T21:49:01.480Z,15.30
2022-10-06T21:51:08.679Z,15.30
2022-10-06T21:53:11.447Z,15.27
2022-10-06T21:55:15.701Z,15.26
2022-10-06T21:57:18.448Z,15.27
2022-10-06T21:59:21.323Z,15.26
2022-10-06T22:01:26.403Z,15.26
2022-10-06T22:03:29.359Z,15.24
2022-10-06T22:05:32.091Z,15.23
2022-10-06T22:07:34.822Z,15.24
2022-10-06T22:09:37.619Z,15.24
2022-10-06T22:11:42.336Z,15.23
2022-10-06T22:13:47.051Z,15.22
2022-10-06T22:15:49.840Z,15.21
2022-10-06T22:17:52.924Z,15.21
2022-10-06T22:19:55.666Z,15.20
2022-10-06T22:21:58.453Z,15.20
2022-10-06T22:24:03.247Z,15.19
2022-10-06T22:26:08.855Z,15.31
2022-10-06T22:28:13.011Z,15.24
2022-10-06T22:30:15.826Z,15.20
2022-10-06T22:32:19.654Z,15.18
2022-10-06T22:34:22.442Z,15.16
2022-10-06T22:36:26.227Z,15.14
2022-10-06T22:38:30.275Z,15.13
2022-10-06T22:40:33.038Z,15.13
2022-10-06T22:42:35.787Z,15.11
2022-10-06T22:44:39.914Z,15.11
2022-10-06T22:46:42.729Z,15.09
2022-10-06T22:48:45.677Z,15.10
2022-10-06T22:50:48.948Z,15.08
2022-10-06T22:52:52.287Z,15.08
2022-10-06T22:54:55.095Z,15.07
2022-10-06T22:56:58.043Z,15.08
2022-10-06T22:59:01.375Z,15.09
2022-10-06T23:01:11.818Z,15.10
2022-10-06T23:03:14.694Z,15.08
2022-10-06T23:05:17.514Z,15.07
2022-10-06T23:07:20.308Z,15.06
2022-10-06T23:09:23.047Z,15.06
2022-10-06T23:11:26.065Z,15.05
2022-10-06T23:13:31.481Z,15.03
2022-10-06T23:15:34.517Z,15.02
2022-10-06T23:17:39.412Z,15.02
2022-10-06T23:19:42.200Z,15.00
2022-10-06T23:21:44.950Z,15.02
2022-10-06T23:23:48.494Z,15.01
2022-10-06T23:25:51.213Z,15.01
2022-10-06T23:27:53.975Z,15.00
2022-10-06T23:29:56.809Z,15.01
2022-10-06T23:31:59.621Z,15.02
2022-10-06T23:34:03.903Z,15.01
2022-10-06T23:36:08.437Z,14.99
2022-10-06T23:38:11.183Z,14.98
2022-10-06T23:40:13.943Z,14.97
2022-10-06T23:42:17.008Z,14.99
2022-10-06T23:44:19.731Z,14.96
2022-10-06T23:46:22.592Z,14.94
2022-10-06T23:48:25.598Z,14.91
2022-10-06T23:50:29.686Z,14.89
2022-10-06T23:52:32.441Z,14.88
2022-10-06T23:54:35.169Z,14.89
2022-10-06T23:56:37.906Z,14.89
2022-10-06T23:58:41.803Z,14.89
